Time;durP1;ratioP1;P1;durP2;ratioP2;P2;SDS_P1;SDS_P2;PMS_P1;PMS_P2;Temp;Humidity;BMP_temperature;BMP_pressure;BME280_temperature;BME280_humidity;BME280_pressure;Samples;Min_cycle;Max_cycle;Signal;HPM_P1;HPM_P2
2021/09/19 00:01:27;;;;;;;8.05;6.65;;;16.00;99.90;;;;;;5015684;28;20026;-72
2021/09/19 00:03:56;;;;;;;11.15;6.47;;;16.00;99.90;;;;;;5015657;28;20026;-72
2021/09/19 00:06:22;;;;;;;7.20;6.40;;;16.10;99.90;;;;;;5033031;28;20382;-72
2021/09/19 00:08:48;;;;;;;8.57;6.13;;;16.20;99.90;;;;;;5033460;28;20033;-71
2021/09/19 00:11:14;;;;;;;10.75;6.75;;;16.20;99.90;;;;;;5015518;28;20075;-73
2021/09/19 00:13:40;;;;;;;9.65;6.90;;;16.20;99.90;;;;;;5015612;28;20029;-71
2021/09/19 00:16:06;;;;;;;12.80;7.00;;;16.20;99.90;;;;;;5015469;28;20420;-72
2021/09/19 00:18:32;;;;;;;8.23;6.47;;;16.20;99.90;;;;;;5033315;28;20083;-73
2021/09/19 00:20:58;;;;;;;10.93;6.28;;;16.20;99.90;;;;;;5033189;28;20017;-71
2021/09/19 00:23:24;;;;;;;7.60;6.72;;;16.20;99.90;;;;;;5033187;28;20056;-72
2021/09/19 00:25:50;;;;;;;13.85;8.45;;;16.20;99.90;;;;;;5032217;28;20116;-71
2021/09/19 00:28:18;;;;;;;11.05;6.25;;;16.20;99.90;;;;;;5033148;28;20042;-71
2021/09/19 00:30:44;;;;;;;14.13;7.07;;;16.20;99.90;;;;;;5033094;28;20079;-71
2021/09/19 00:33:10;;;;;;;8.25;6.68;;;16.10;99.90;;;;;;5033051;28;20026;-72
2021/09/19 00:35:36;;;;;;;9.15;5.85;;;16.10;99.90;;;;;;5033076;28;20041;-71
2021/09/19 00:38:03;;;;;;;10.25;7.03;;;16.10;99.90;;;;;;5015199;28;20041;-71
2021/09/19 00:40:29;;;;;;;9.07;6.22;;;16.10;99.90;;;;;;5033024;28;20108;-70
2021/09/19 00:42:55;;;;;;;12.15;6.82;;;16.10;99.90;;;;;;5033234;28;20439;-70
2021/09/19 00:45:22;;;;;;;13.23;6.95;;;16.00;99.90;;;;;;5033225;28;20034;-71
2021/09/19 00:47:48;;;;;;;13.63;7.80;;;15.90;99.90;;;;;;5014839;28;20033;-71
2021/09/19 00:50:17;;;;;;;9.57;7.00;;;15.90;99.90;;;;;;5033173;28;20034;-71
2021/09/19 00:52:45;;;;;;;9.85;7.25;;;16.00;99.90;;;;;;5032887;28;20032;-72
2021/09/19 00:55:12;;;;;;;11.13;6.70;;;16.00;99.90;;;;;;5032888;28;20029;-70
2021/09/19 00:57:56;;;;;;;8.23;6.53;;;16.00;99.90;;;;;;5017072;28;20796;-70
2021/09/19 01:00:28;;;;;;;7.22;6.00;;;16.00;99.90;;;;;;5019122;28;20068;-71
2021/09/19 01:02:55;;;;;;;10.10;6.22;;;16.00;99.90;;;;;;5036873;28;20421;-69
2021/09/19 01:05:22;;;;;;;14.48;6.68;;;16.00;99.90;;;;;;5036773;28;20116;-71
2021/09/19 01:07:49;;;;;;;12.15;6.45;;;16.10;99.90;;;;;;5036656;28;20458;-72
2021/09/19 01:10:19;;;;;;;8.10;6.53;;;16.10;99.90;;;;;;5036934;28;20535;-69
2021/09/19 01:12:45;;;;;;;11.30;6.32;;;16.10;99.90;;;;;;5036638;28;20032;-70
2021/09/19 01:15:12;;;;;;;10.77;7.18;;;16.10;99.90;;;;;;5018836;28;20052;-71
2021/09/19 01:17:40;;;;;;;17.95;7.95;;;16.00;99.90;;;;;;5036864;28;20033;-72
2021/09/19 01:20:13;;;;;;;11.85;7.57;;;16.00;99.90;;;;;;5036489;28;20493;-71
2021/09/19 01:22:40;;;;;;;13.25;7.53;;;16.00;99.90;;;;;;5018741;28;20030;-70
2021/09/19 01:25:09;;;;;;;13.23;7.80;;;16.10;99.90;;;;;;5036680;28;20025;-71
2021/09/19 01:27:35;;;;;;;17.77;8.32;;;16.00;99.90;;;;;;5036329;28;20034;-70
2021/09/19 01:30:02;;;;;;;15.43;8.32;;;16.00;99.90;;;;;;5018592;28;20044;-72
2021/09/19 01:32:27;;;;;;;15.27;10.82;;;16.10;99.90;;;;;;5018131;28;20025;-71
2021/09/19 01:34:53;;;;;;;15.77;10.35;;;16.10;99.90;;;;;;5035779;28;20154;-71
2021/09/19 01:37:19;;;;;;;15.90;10.65;;;16.10;99.90;;;;;;5018039;28;20034;-71
2021/09/19 01:39:45;;;;;;;20.08;11.10;;;16.10;99.90;;;;;;5036219;28;20029;-71
2021/09/19 01:42:12;;;;;;;15.50;10.55;;;16.10;99.90;;;;;;5035839;28;20031;-73
2021/09/19 01:44:40;;;;;;;12.25;8.93;;;16.10;99.90;;;;;;5036043;28;20045;-72
2021/09/19 01:47:06;;;;;;;16.02;8.25;;;16.10;99.90;;;;;;5018170;28;20061;-70
2021/09/19 01:49:32;;;;;;;16.58;7.88;;;16.10;99.90;;;;;;5036039;28;20080;-71
2021/09/19 01:51:58;;;;;;;11.13;7.45;;;16.10;99.90;;;;;;5036174;28;20103;-71
2021/09/19 01:54:25;;;;;;;12.75;7.90;;;16.00;99.90;;;;;;5018045;28;20466;-70
2021/09/19 01:56:51;;;;;;;10.93;7.65;;;16.00;99.90;;;;;;5018045;28;20533;-71
2021/09/19 01:59:17;;;;;;;11.93;7.80;;;16.00;99.90;;;;;;5035815;28;20018;-71
2021/09/19 02:01:43;;;;;;;16.17;8.38;;;16.00;99.90;;;;;;5017815;28;20496;-71
2021/09/19 02:04:09;;;;;;;14.43;7.32;;;15.90;99.90;;;;;;5035635;28;20028;-70
2021/09/19 02:06:35;;;;;;;11.32;8.50;;;15.90;99.90;;;;;;5035552;28;20041;-71
2021/09/19 02:09:00;;;;;;;11.68;9.60;;;15.80;99.90;;;;;;5017596;28;20079;-71
2021/09/19 02:11:27;;;;;;;13.10;9.32;;;15.80;99.90;;;;;;5035571;28;20347;-70
2021/09/19 02:13:54;;;;;;;11.48;8.35;;;15.70;99.90;;;;;;5035520;28;20083;-73
2021/09/19 02:16:21;;;;;;;14.65;8.38;;;15.70;99.90;;;;;;5035482;28;20037;-72
2021/09/19 02:18:50;;;;;;;15.55;9.23;;;15.70;99.90;;;;;;5035457;28;20064;-69
2021/09/19 02:21:18;;;;;;;11.27;8.60;;;15.60;99.90;;;;;;5035330;28;20117;-70
2021/09/19 02:23:44;;;;;;;16.42;9.38;;;15.60;99.90;;;;;;5035356;28;20026;-69
2021/09/19 02:26:10;;;;;;;15.68;9.20;;;15.50;99.90;;;;;;5017381;28;20075;-70
2021/09/19 02:28:36;;;;;;;14.32;8.68;;;15.60;99.90;;;;;;5017572;28;20528;-72
2021/09/19 02:31:03;;;;;;;11.77;9.18;;;;;;;;;;5017408;28;20164;-70
2021/09/19 02:33:29;;;;;;;13.75;8.82;;;;;;;;;;5017344;28;20378;-72
2021/09/19 02:35:55;;;;;;;14.00;9.07;;;;;;;;;;5034649;28;20486;-70
2021/09/19 02:38:21;;;;;;;19.92;10.32;;;15.50;99.90;;;;;;5017348;28;20060;-69
2021/09/19 02:40:47;;;;;;;13.50;9.35;;;15.20;99.90;;;;;;5034778;28;20410;-71
2021/09/19 02:43:13;;;;;;;19.13;10.32;;;15.10;99.90;;;;;;5017160;28;20079;-69
2021/09/19 02:45:39;;;;;;;13.95;9.27;;;15.10;99.90;;;;;;5035164;28;20025;-69
2021/09/19 02:48:05;;;;;;;18.00;10.35;;;15.10;99.90;;;;;;5034853;28;20504;-69
2021/09/19 02:50:31;;;;;;;16.40;10.40;;;15.10;99.90;;;;;;5016714;28;20044;-69
2021/09/19 02:52:57;;;;;;;19.48;11.50;;;14.90;99.90;;;;;;5016939;28;20112;-69
2021/09/19 02:55:23;;;;;;;20.63;10.77;;;14.80;99.90;;;;;;5034721;28;20032;-68
2021/09/19 02:57:49;;;;;;;19.88;11.00;;;14.80;99.90;;;;;;5034654;28;20033;-70
2021/09/19 03:00:18;;;;;;;19.38;11.70;;;14.80;99.90;;;;;;5034704;28;20417;-70
2021/09/19 03:02:44;;;;;;;16.05;11.15;;;14.70;99.90;;;;;;5034586;28;20095;-70
2021/09/19 03:05:11;;;;;;;21.30;12.00;;;14.70;99.90;;;;;;5034813;28;20369;-69
2021/09/19 03:07:37;;;;;;;18.38;11.10;;;14.70;99.90;;;;;;5016508;28;20389;-69
2021/09/19 03:10:06;;;;;;;21.13;12.10;;;14.60;99.90;;;;;;5016395;28;20120;-70
2021/09/19 03:12:32;;;;;;;20.00;11.18;;;;;;;;;;5034560;28;20029;-70
2021/09/19 03:14:58;;;;;;;17.73;10.40;;;;;;;;;;5016614;28;20124;-68
2021/09/19 03:17:34;;;;;;;12.88;9.57;;;;;;;;;;5034035;28;20034;-69
2021/09/19 03:20:00;;;;;;;14.32;8.82;;;14.60;99.90;;;;;;5015887;28;20048;-70
2021/09/19 03:22:26;;;;;;;17.08;8.70;;;;;;;;;;5034189;28;20477;-71
2021/09/19 03:24:52;;;;;;;17.35;8.75;;;;;;;;;;5034459;28;20021;-70
2021/09/19 03:27:18;;;;;;;13.73;9.48;;;;;;;;;;5016191;28;20025;-70
2021/09/19 03:29:44;;;;;;;14.93;8.48;;;;;;;;;;5034148;28;20381;-69
2021/09/19 03:32:11;;;;;;;12.43;8.60;;;;;;;;;;5034057;28;20547;-68
2021/09/19 03:34:37;;;;;;;14.57;9.02;;;;;;;;;;5033626;28;20493;-71
2021/09/19 03:37:04;;;;;;;13.73;9.32;;;;;;;;;;5016154;28;20132;-69
2021/09/19 03:39:30;;;;;;;13.88;8.50;;;;;;;;;;5033983;28;20037;-70
2021/09/19 03:41:56;;;;;;;13.00;9.05;;;;;;;;;;5016081;28;20436;-70
2021/09/19 03:44:22;;;;;;;12.65;9.40;;;14.60;99.90;;;;;;5016076;28;20055;-70
2021/09/19 03:46:48;;;;;;;11.07;8.50;;;14.40;99.90;;;;;;5015865;28;20124;-71
2021/09/19 03:49:14;;;;;;;12.93;9.27;;;14.30;99.90;;;;;;5033572;28;20041;-72
2021/09/19 03:51:39;;;;;;;14.82;9.38;;;14.20;99.90;;;;;;5033695;28;20098;-70
2021/09/19 03:54:06;;;;;;;16.70;9.25;;;14.30;99.90;;;;;;5033645;28;20780;-70
2021/09/19 03:56:32;;;;;;;11.60;8.98;;;14.20;99.90;;;;;;5033328;28;20034;-70
2021/09/19 03:58:58;;;;;;;12.68;8.88;;;14.10;99.90;;;;;;5015865;28;20036;-69
2021/09/19 04:01:24;;;;;;;13.70;9.73;;;14.10;99.90;;;;;;5033231;28;20425;-70
2021/09/19 04:03:50;;;;;;;11.88;9.35;;;14.00;99.90;;;;;;5033454;28;20038;-72
2021/09/19 04:06:19;;;;;;;19.00;10.52;;;13.90;99.90;;;;;;5033609;28;20061;-73
2021/09/19 04:08:45;;;;;;;13.10;10.20;;;13.90;99.90;;;;;;5033489;28;20037;-72
2021/09/19 04:11:10;;;;;;;19.30;10.27;;;13.90;99.90;;;;;;5015555;28;20037;-70
2021/09/19 04:13:36;;;;;;;14.88;10.07;;;13.90;99.90;;;;;;5015528;28;20125;-73
2021/09/19 04:16:02;;;;;;;17.20;9.90;;;13.90;99.90;;;;;;5033285;28;20040;-73
2021/09/19 04:18:28;;;;;;;17.02;10.32;;;13.90;99.90;;;;;;5033008;28;20363;-69
2021/09/19 04:20:54;;;;;;;14.93;10.63;;;14.00;99.90;;;;;;5033231;28;20025;-70
2021/09/19 04:23:22;;;;;;;12.52;9.07;;;14.10;99.90;;;;;;5033188;28;20026;-70
2021/09/19 04:25:49;;;;;;;12.35;9.35;;;14.10;99.90;;;;;;5015401;28;20028;-71
2021/09/19 04:28:15;;;;;;;13.85;8.27;;;14.20;99.90;;;;;;5033079;28;20041;-71
2021/09/19 04:30:41;;;;;;;16.52;9.27;;;14.20;99.90;;;;;;5015357;28;20029;-69
2021/09/19 04:33:07;;;;;;;20.17;9.13;;;14.20;99.90;;;;;;5015293;28;20032;-71
2021/09/19 04:35:32;;;;;;;12.77;8.40;;;14.20;99.90;;;;;;5033163;28;20049;-70
2021/09/19 04:37:58;;;;;;;18.08;9.60;;;14.20;99.90;;;;;;5015309;28;20029;-69
2021/09/19 04:40:24;;;;;;;15.90;9.40;;;14.20;99.90;;;;;;5033090;28;20470;-70
2021/09/19 04:42:50;;;;;;;18.77;10.15;;;14.20;99.90;;;;;;5015226;28;20029;-72
2021/09/19 04:45:16;;;;;;;17.67;10.02;;;14.20;99.90;;;;;;5032967;28;20069;-72
2021/09/19 04:47:42;;;;;;;17.23;10.23;;;14.20;99.90;;;;;;5032866;28;20033;-70
2021/09/19 04:50:08;;;;;;;17.65;9.10;;;14.20;99.90;;;;;;5032976;28;20112;-70
2021/09/19 04:52:34;;;;;;;20.88;9.60;;;14.20;99.90;;;;;;5032638;28;20025;-70
2021/09/19 04:55:00;;;;;;;16.38;10.02;;;14.20;99.90;;;;;;5015179;28;20091;-68
2021/09/19 04:57:26;;;;;;;14.75;9.38;;;14.20;99.90;;;;;;5014734;28;20433;-70
2021/09/19 04:59:52;;;;;;;16.17;9.65;;;14.20;99.90;;;;;;5015172;28;20052;-71
2021/09/19 05:02:17;;;;;;;24.55;10.32;;;14.30;99.90;;;;;;5033141;28;20025;-69
2021/09/19 05:04:43;;;;;;;17.73;10.20;;;14.30;99.90;;;;;;5015268;28;20029;-69
2021/09/19 05:07:09;;;;;;;13.38;10.35;;;14.30;99.90;;;;;;5032854;28;20029;-71
2021/09/19 05:09:35;;;;;;;13.85;10.25;;;14.30;99.90;;;;;;5032801;28;20033;-69
2021/09/19 05:12:01;;;;;;;15.65;10.45;;;14.30;99.90;;;;;;5032979;28;20026;-71
2021/09/19 05:14:27;;;;;;;17.38;10.93;;;14.40;99.90;;;;;;5032729;28;20397;-70
2021/09/19 05:16:52;;;;;;;15.57;9.38;;;14.40;99.90;;;;;;5032659;28;20080;-70
2021/09/19 05:19:18;;;;;;;21.75;10.82;;;14.40;99.90;;;;;;5014983;28;20385;-72
2021/09/19 05:21:44;;;;;;;17.15;10.55;;;14.50;99.90;;;;;;5014580;28;20512;-70
2021/09/19 05:24:10;;;;;;;13.07;10.00;;;14.50;99.90;;;;;;5032675;28;20099;-70
2021/09/19 05:26:36;;;;;;;16.70;10.40;;;14.50;99.90;;;;;;5032489;28;20082;-70
2021/09/19 05:29:02;;;;;;;14.75;11.20;;;14.50;99.90;;;;;;5014862;28;20033;-69
2021/09/19 05:31:30;;;;;;;18.75;10.70;;;14.60;99.90;;;;;;5032611;28;20075;-69
2021/09/19 05:33:57;;;;;;;16.73;9.85;;;14.70;99.90;;;;;;5014794;28;20044;-69
2021/09/19 05:36:23;;;;;;;14.75;10.20;;;14.70;99.90;;;;;;5032577;28;20083;-70
2021/09/19 05:38:48;;;;;;;15.02;10.30;;;14.80;99.90;;;;;;5032480;28;20381;-71
2021/09/19 05:41:14;;;;;;;18.05;10.63;;;14.90;99.90;;;;;;5032543;28;20540;-70
2021/09/19 05:43:40;;;;;;;14.60;11.30;;;14.90;99.90;;;;;;5034131;28;20018;-69
2021/09/19 05:46:06;;;;;;;12.60;10.30;;;15.00;99.90;;;;;;5035897;28;20040;-69
2021/09/19 05:48:32;;;;;;;12.48;10.13;;;15.00;99.90;;;;;;5018181;28;20025;-68
2021/09/19 05:50:58;;;;;;;14.95;10.32;;;15.10;99.90;;;;;;5036238;28;20088;-67
2021/09/19 05:53:24;;;;;;;14.55;11.05;;;15.00;99.90;;;;;;5018104;28;20025;-69
2021/09/19 05:55:50;;;;;;;14.65;9.95;;;15.10;99.90;;;;;;5017749;28;20036;-69
2021/09/19 05:58:16;;;;;;;12.07;9.77;;;15.10;99.90;;;;;;5035510;28;20037;-70
2021/09/19 06:00:42;;;;;;;18.08;9.73;;;15.10;99.90;;;;;;5017974;28;20470;-69
2021/09/19 06:03:08;;;;;;;12.57;10.30;;;15.10;99.90;;;;;;5017905;28;20040;-71
2021/09/19 06:05:34;;;;;;;18.73;10.85;;;15.20;99.90;;;;;;5017870;28;20064;-70
2021/09/19 06:07:59;;;;;;;18.73;11.75;;;15.20;99.90;;;;;;5017798;28;20033;-72
2021/09/19 06:10:25;;;;;;;23.15;11.90;;;15.20;99.90;;;;;;5035660;28;20374;-70
2021/09/19 06:12:51;;;;;;;14.55;11.38;;;15.20;99.90;;;;;;5017756;28;20040;-71
2021/09/19 06:15:17;;;;;;;16.75;11.00;;;15.30;99.90;;;;;;5035731;28;20030;-71
2021/09/19 06:17:43;;;;;;;17.63;12.70;;;15.30;99.90;;;;;;5035400;28;20037;-71
2021/09/19 06:20:09;;;;;;;16.45;9.70;;;15.40;99.90;;;;;;5035184;28;20084;-72
2021/09/19 06:22:35;;;;;;;27.75;11.95;;;15.50;99.90;;;;;;5035384;28;20371;-72
2021/09/19 06:25:01;;;;;;;16.30;10.55;;;15.50;99.90;;;;;;5035183;28;20021;-72
2021/09/19 06:27:27;;;;;;;15.32;9.55;;;15.60;99.90;;;;;;5035297;28;20489;-72
2021/09/19 06:29:53;;;;;;;15.48;10.18;;;15.70;99.90;;;;;;5035059;28;20068;-72
2021/09/19 06:32:21;;;;;;;15.02;9.85;;;15.80;99.90;;;;;;5017271;28;20059;-71
2021/09/19 06:34:47;;;;;;;13.45;9.98;;;15.90;99.90;;;;;;5034711;28;20061;-70
2021/09/19 06:37:13;;;;;;;13.70;9.98;;;15.90;99.90;;;;;;5035104;28;20037;-72
2021/09/19 06:39:39;;;;;;;19.13;10.45;;;16.00;99.90;;;;;;5035270;28;20421;-71
2021/09/19 06:42:05;;;;;;;18.83;11.77;;;16.00;99.90;;;;;;5034733;28;20485;-72
2021/09/19 06:44:31;;;;;;;14.40;9.77;;;16.10;99.90;;;;;;5017128;28;20029;-69
2021/09/19 06:46:56;;;;;;;19.65;10.38;;;16.20;99.90;;;;;;5034336;28;20417;-71
2021/09/19 06:49:24;;;;;;;14.32;9.27;;;16.30;99.90;;;;;;5034178;28;20029;-71
2021/09/19 06:51:49;;;;;;;12.75;9.40;;;16.40;99.90;;;;;;5034513;28;20065;-71
2021/09/19 06:54:15;;;;;;;14.45;9.15;;;16.40;99.90;;;;;;5015999;28;20056;-72
2021/09/19 06:56:42;;;;;;;16.80;9.00;;;16.50;99.90;;;;;;5034034;28;20030;-71
2021/09/19 06:59:07;;;;;;;12.10;9.23;;;16.60;99.90;;;;;;5034248;28;20022;-71
2021/09/19 07:01:33;;;;;;;12.15;8.45;;;16.70;99.90;;;;;;5034307;28;20078;-70
2021/09/19 07:03:59;;;;;;;10.27;7.38;;;16.80;99.90;;;;;;5034251;28;20156;-72
2021/09/19 07:06:25;;;;;;;17.70;8.82;;;16.90;99.90;;;;;;5034731;28;20026;-71
2021/09/19 07:08:51;;;;;;;12.60;7.05;;;;;;;;;;5034780;28;20418;-71
2021/09/19 07:11:17;;;;;;;12.05;8.18;;;;;;;;;;5034661;28;20025;-70
2021/09/19 07:13:43;;;;;;;11.20;7.63;;;;;;;;;;5034690;28;20386;-72
2021/09/19 07:16:09;;;;;;;10.50;7.35;;;;;;;;;;5034627;28;20470;-71
2021/09/19 07:18:36;;;;;;;9.25;7.88;;;17.00;99.90;;;;;;5034559;28;20029;-72
2021/09/19 07:21:02;;;;;;;8.05;7.13;;;;;;;;;;5033247;28;20052;-70
2021/09/19 07:23:27;;;;;;;12.95;7.60;;;17.40;99.90;;;;;;5034231;28;20029;-70
2021/09/19 07:25:53;;;;;;;11.10;8.05;;;17.60;99.90;;;;;;5016200;28;20025;-69
2021/09/19 07:28:20;;;;;;;11.27;7.90;;;17.70;99.90;;;;;;5035058;28;20084;-72
2021/09/19 07:30:46;;;;;;;10.15;8.25;;;;;;;;;;5034161;28;20040;-70
2021/09/19 07:33:13;;;;;;;11.88;7.85;;;;;;;;;;5034025;28;20068;-71
2021/09/19 07:35:39;;;;;;;11.32;8.27;;;;;;;;;;5012722;28;20049;-70
2021/09/19 07:38:05;;;;;;;10.25;7.72;;;;;;;;;;5020351;28;20161;-70
2021/09/19 07:40:31;;;;;;;11.40;7.57;;;17.80;99.90;;;;;;5012641;28;20625;-71
2021/09/19 07:42:59;;;;;;;10.02;7.18;;;18.30;99.90;;;;;;5012535;28;20022;-70
2021/09/19 07:45:26;;;;;;;11.68;7.75;;;18.40;99.90;;;;;;5011565;28;20033;-72
2021/09/19 07:47:53;;;;;;;9.35;7.53;;;18.50;99.80;;;;;;5012988;28;20061;-70
2021/09/19 07:50:19;;;;;;;11.32;7.10;;;18.60;99.00;;;;;;5012999;28;20030;-73
2021/09/19 07:52:46;;;;;;;8.82;7.05;;;18.70;99.60;;;;;;5013212;28;20033;-69
2021/09/19 07:55:15;;;;;;;9.73;7.40;;;18.90;99.90;;;;;;5012641;28;20030;-67
2021/09/19 07:57:42;;;;;;;10.35;7.18;;;19.00;99.70;;;;;;5014560;28;20026;-70
2021/09/19 08:00:09;;;;;;;8.63;6.80;;;19.10;98.20;;;;;;5014638;28;20030;-69
2021/09/19 08:02:35;;;;;;;8.13;6.60;;;19.20;97.60;;;;;;5012454;28;20061;-71
2021/09/19 08:05:00;;;;;;;8.63;5.68;;;19.30;96.40;;;;;;5012423;28;20054;-69
2021/09/19 08:07:26;;;;;;;11.50;5.80;;;19.50;95.10;;;;;;5013449;28;20040;-70
2021/09/19 08:09:53;;;;;;;9.30;5.57;;;19.90;99.90;;;;;;5013641;28;20075;-71
2021/09/19 08:12:19;;;;;;;7.50;5.40;;;19.70;94.80;;;;;;5013636;28;20382;-71
2021/09/19 08:14:45;;;;;;;7.30;5.22;;;19.90;94.20;;;;;;5013562;28;20022;-72
2021/09/19 08:17:12;;;;;;;5.10;4.63;;;20.30;93.60;;;;;;5013818;28;20033;-69
2021/09/19 08:19:38;;;;;;;6.65;5.57;;;;;;;;;;5013787;28;20458;-69
2021/09/19 08:22:04;;;;;;;8.98;6.35;;;20.60;98.90;;;;;;5012381;28;20377;-70
2021/09/19 08:24:30;;;;;;;10.85;5.80;;;20.80;99.90;;;;;;5011852;28;20030;-69
2021/09/19 08:26:56;;;;;;;12.05;5.93;;;20.80;90.70;;;;;;5011786;28;20041;-71
2021/09/19 08:29:22;;;;;;;6.13;4.78;;;21.00;90.70;;;;;;5011607;28;20026;-70
2021/09/19 08:31:49;;;;;;;8.02;4.78;;;21.10;90.10;;;;;;5013285;28;20030;-72
2021/09/19 08:34:15;;;;;;;5.97;4.75;;;;;;;;;;5011622;28;20046;-71
2021/09/19 08:36:40;;;;;;;6.68;4.57;;;21.50;88.50;;;;;;5011761;28;20022;-70
2021/09/19 08:39:08;;;;;;;6.70;5.15;;;21.70;87.50;;;;;;5013399;28;20112;-72
2021/09/19 08:41:35;;;;;;;6.30;4.82;;;21.80;86.80;;;;;;5011627;28;20036;-72
2021/09/19 08:44:02;;;;;;;4.80;4.35;;;22.00;87.90;;;;;;5013392;28;20042;-71
2021/09/19 08:46:29;;;;;;;7.80;4.75;;;22.10;86.90;;;;;;5013007;28;20076;-71
2021/09/19 08:48:55;;;;;;;4.43;4.03;;;22.40;92.30;;;;;;5012588;28;20475;-70
2021/09/19 08:51:21;;;;;;;5.43;4.25;;;22.40;85.90;;;;;;5013116;28;20083;-74
2021/09/19 08:53:47;;;;;;;6.25;3.33;;;;;;;;;;5013092;28;20034;-72
2021/09/19 08:56:22;;;;;;;3.88;3.42;;;23.00;98.40;;;;;;5011670;28;20037;-71
2021/09/19 08:58:48;;;;;;;3.25;2.95;;;22.90;80.30;;;;;;5012614;28;20018;-74
2021/09/19 09:01:14;;;;;;;6.57;3.75;;;23.10;79.10;;;;;;5012948;28;20474;-72
2021/09/19 09:03:40;;;;;;;8.77;3.80;;;23.20;77.20;;;;;;5012925;28;20046;-70
2021/09/19 09:06:09;;;;;;;4.50;3.55;;;23.30;76.20;;;;;;5011580;28;20034;-71
2021/09/19 09:08:35;;;;;;;7.20;3.53;;;23.50;77.10;;;;;;5013075;28;20041;-72
2021/09/19 09:11:04;;;;;;;4.55;3.33;;;23.60;75.90;;;;;;5013134;28;20030;-71
2021/09/19 09:13:32;;;;;;;4.22;3.40;;;23.60;75.80;;;;;;5011797;28;20033;-70
2021/09/19 09:16:13;;;;;;;3.70;3.10;;;23.90;75.50;;;;;;5012984;28;20459;-75
2021/09/19 09:18:43;;;;;;;8.13;3.03;;;;;;;;;;5014831;28;20048;-72
2021/09/19 09:21:23;;;;;;;3.92;2.72;;;23.90;71.90;;;;;;5015470;28;20505;-76
2021/09/19 09:23:56;;;;;;;5.03;3.10;;;24.00;73.60;;;;;;5016743;28;20058;-73
2021/09/19 09:26:30;;;;;;;4.43;3.22;;;;;;;;;;5016650;28;20030;-74
2021/09/19 09:28:59;;;;;;;7.35;3.08;;;;;;;;;;5016547;28;20038;-74
2021/09/19 09:31:38;;;;;;;3.60;3.30;;;;;;;;;;5016591;28;20018;-74
2021/09/19 09:34:06;;;;;;;4.15;3.25;;;;;;;;;;5019172;28;20037;-75
2021/09/19 09:36:41;;;;;;;3.30;2.83;;;;;;;;;;5036040;28;20481;-74
2021/09/19 09:39:40;;;;;;;6.82;3.45;;;25.40;70.10;;;;;;5018402;28;20030;-76
2021/09/19 09:42:09;;;;;;;3.85;3.15;;;25.40;71.30;;;;;;5018232;28;20113;-74
2021/09/19 09:44:45;;;;;;;3.08;2.72;;;25.50;69.10;;;;;;5036306;28;20034;-71
2021/09/19 09:47:28;;;;;;;5.72;3.17;;;25.70;68.80;;;;;;5035889;28;20029;-71
2021/09/19 09:49:57;;;;;;;6.88;3.22;;;25.70;67.10;;;;;;5036007;28;20025;-71
2021/09/19 09:52:25;;;;;;;3.08;2.65;;;;;;;;;;5018077;28;20033;-70
2021/09/19 09:55:03;;;;;;;5.13;3.08;;;26.00;68.00;;;;;;5034951;28;20029;-72
2021/09/19 09:57:34;;;;;;;3.92;3.53;;;26.30;67.70;;;;;;5035484;28;20034;-71
2021/09/19 10:00:16;;;;;;;4.88;3.10;;;26.30;66.20;;;;;;5017464;28;20029;-70
2021/09/19 10:02:44;;;;;;;3.20;2.90;;;26.40;67.20;;;;;;5017956;28;20382;-70
2021/09/19 10:05:13;;;;;;;4.43;3.00;;;26.80;66.90;;;;;;5035526;28;20025;-72
2021/09/19 10:07:40;;;;;;;3.25;2.70;;;26.90;66.00;;;;;;5035470;28;20037;-72
2021/09/19 10:10:09;;;;;;;4.30;2.70;;;27.10;64.80;;;;;;5017696;28;20067;-72
2021/09/19 10:12:35;;;;;;;7.78;2.72;;;27.50;72.30;;;;;;5035479;28;20083;-71
2021/09/19 10:15:02;;;;;;;3.85;2.90;;;27.50;64.50;;;;;;5035149;28;20029;-72
2021/09/19 10:17:31;;;;;;;3.65;2.80;;;27.80;62.10;;;;;;5035374;28;20026;-70
2021/09/19 10:19:58;;;;;;;4.22;2.58;;;;;;;;;;5035248;28;20033;-71
2021/09/19 10:22:30;;;;;;;4.45;2.80;;;28.50;76.50;;;;;;5035328;28;20056;-72
2021/09/19 10:24:57;;;;;;;3.72;2.45;;;29.80;59.50;;;;;;5017537;28;20065;-70
2021/09/19 10:27:29;;;;;;;3.08;2.72;;;29.80;60.30;;;;;;5035137;28;20029;-72
2021/09/19 10:29:58;;;;;;;3.38;2.95;;;30.50;58.40;;;;;;5035075;28;20096;-71
2021/09/19 10:32:46;;;;;;;3.65;3.17;;;31.20;57.40;;;;;;5035249;28;20074;-70
2021/09/19 10:35:18;;;;;;;6.25;3.13;;;31.10;55.50;;;;;;5034669;28;20371;-70
2021/09/19 10:38:03;;;;;;;3.58;2.88;;;32.10;55.40;;;;;;5017323;28;20079;-71
2021/09/19 10:40:42;;;;;;;3.05;2.65;;;32.50;55.20;;;;;;5017201;28;20025;-72
2021/09/19 10:43:21;;;;;;;2.88;2.60;;;33.10;53.80;;;;;;5034915;28;20026;-70
2021/09/19 10:45:52;;;;;;;5.20;2.80;;;33.50;51.90;;;;;;5034904;28;20029;-70
2021/09/19 10:48:29;;;;;;;4.32;2.88;;;34.10;50.40;;;;;;5034425;28;20029;-72
2021/09/19 10:51:05;;;;;;;4.40;2.72;;;34.40;50.00;;;;;;5034779;28;20084;-72
2021/09/19 10:53:31;;;;;;;3.05;2.60;;;34.80;48.70;;;;;;5017051;28;20025;-72
2021/09/19 10:55:59;;;;;;;5.57;2.58;;;35.40;48.20;;;;;;5034728;28;20049;-72
2021/09/19 10:58:30;;;;;;;2.58;2.38;;;36.30;47.70;;;;;;5016600;28;20049;-72
2021/09/19 11:01:15;;;;;;;2.83;2.58;;;36.60;45.60;;;;;;5016864;28;20385;-72
2021/09/19 11:04:10;;;;;;;3.85;3.05;;;36.40;44.90;;;;;;5034919;28;20036;-72
2021/09/19 11:06:56;;;;;;;2.50;2.30;;;36.70;43.70;;;;;;5004875;28;20482;-72
2021/09/19 11:09:23;;;;;;;3.42;2.22;;;;;;;;;;4934854;29;20044;-71
2021/09/19 11:12:08;;;;;;;3.85;2.45;;;;;;;;;;4918802;29;20126;-72
2021/09/19 11:15:06;;;;;;;4.00;2.67;;;37.10;44.70;;;;;;4934719;29;20075;-72
2021/09/19 11:17:34;;;;;;;3.05;2.47;;;37.60;43.40;;;;;;4914509;29;20408;-72
2021/09/19 11:20:21;;;;;;;3.78;2.50;;;38.00;42.50;;;;;;4934574;29;20541;-72
2021/09/19 11:23:13;;;;;;;2.28;2.08;;;38.00;43.20;;;;;;4934575;29;20035;-71
2021/09/19 11:25:39;;;;;;;2.60;2.20;;;38.00;42.20;;;;;;4917928;29;20055;-72
2021/09/19 11:28:05;;;;;;;5.45;2.13;;;39.10;41.40;;;;;;4934377;29;20519;-72
2021/09/19 11:30:31;;;;;;;2.20;2.00;;;39.30;40.80;;;;;;4918432;29;20132;-72
2021/09/19 11:32:57;;;;;;;3.85;2.40;;;39.80;40.10;;;;;;4918375;29;20488;-71
2021/09/19 11:35:23;;;;;;;2.30;2.10;;;39.90;39.80;;;;;;4918060;29;20147;-72
2021/09/19 11:37:58;;;;;;;5.03;2.35;;;39.90;40.30;;;;;;4934393;29;20118;-71
2021/09/19 11:40:24;;;;;;;3.13;2.45;;;40.10;47.10;;;;;;4933795;29;20095;-71
2021/09/19 11:42:53;;;;;;;2.20;2.00;;;;;;;;;;4918211;29;20031;-71
2021/09/19 11:45:21;;;;;;;2.40;2.20;;;39.40;39.80;;;;;;4920181;28;20056;-72
2021/09/19 11:47:50;;;;;;;2.40;2.30;;;40.20;50.60;;;;;;4994476;28;20089;-72
2021/09/19 11:50:16;;;;;;;3.03;2.05;;;39.80;45.80;;;;;;4994390;28;20042;-73
2021/09/19 11:52:43;;;;;;;3.17;2.20;;;;;;;;;;4994430;28;20538;-71
2021/09/19 11:55:09;;;;;;;4.38;2.17;;;40.80;74.70;;;;;;4994521;28;20093;-71
2021/09/19 11:57:36;;;;;;;3.42;1.88;;;;;;;;;;4993029;28;20034;-71
2021/09/19 12:00:04;;;;;;;3.35;1.98;;;;;;;;;;4994468;28;20109;-70
2021/09/19 12:02:31;;;;;;;4.50;1.90;;;41.20;58.50;;;;;;4992905;28;20022;-71
2021/09/19 12:05:00;;;;;;;1.88;1.70;;;42.50;47.20;;;;;;4994159;28;20041;-71
2021/09/19 12:07:26;;;;;;;2.03;1.83;;;43.00;35.90;;;;;;4994042;28;20093;-71
2021/09/19 12:09:53;;;;;;;1.63;1.50;;;43.10;51.90;;;;;;4994124;28;20372;-72
2021/09/19 12:12:20;;;;;;;3.00;1.70;;;43.20;36.10;;;;;;4992496;28;20069;-71
2021/09/19 12:14:53;;;;;;;2.83;1.90;;;43.00;36.40;;;;;;4992715;28;20034;-72
2021/09/19 12:17:26;;;;;;;3.17;2.05;;;;;;;;;;4993983;28;20037;-73
2021/09/19 12:20:01;;;;;;;3.17;2.13;;;42.70;35.20;;;;;;4993866;28;20025;-72
2021/09/19 12:22:28;;;;;;;1.52;1.42;;;42.60;35.60;;;;;;4993788;28;20034;-71
2021/09/19 12:24:57;;;;;;;2.00;1.80;;;43.30;35.10;;;;;;4992523;28;20053;-73
2021/09/19 12:27:32;;;;;;;1.73;1.63;;;43.70;35.10;;;;;;4992333;28;20083;-73
2021/09/19 12:30:05;;;;;;;2.70;2.03;;;43.70;46.00;;;;;;4992478;28;20117;-74
2021/09/19 12:32:37;;;;;;;2.20;2.00;;;42.90;34.00;;;;;;4993866;28;20053;-74
2021/09/19 12:35:05;;;;;;;2.35;1.60;;;42.50;33.60;;;;;;5015500;28;20053;-71
2021/09/19 12:37:35;;;;;;;1.40;1.30;;;42.10;34.70;;;;;;5015248;28;20466;-72
2021/09/19 12:40:08;;;;;;;;;;;42.70;34.50;;;;;;5015799;28;20393;-72
2021/09/19 12:42:35;;;;;;;1.77;1.67;;;;;;;;;;5032967;28;19912;-75
2021/09/19 12:45:01;;;;;;;2.67;2.20;;;;;;;;;;5032999;28;20018;-73
2021/09/19 12:47:31;;;;;;;3.50;1.88;;;;;;;;;;5015043;28;20038;-70
2021/09/19 12:49:57;;;;;;;2.05;1.80;;;44.30;34.20;;;;;;5032872;28;20029;-73
2021/09/19 12:52:30;;;;;;;3.80;2.20;;;;;;;;;;5032636;28;20029;-73
2021/09/19 12:54:57;;;;;;;2.03;1.90;;;44.60;35.20;;;;;;5018929;28;20104;-74
2021/09/19 12:57:25;;;;;;;2.75;1.67;;;44.30;33.70;;;;;;5037014;28;20399;-72
2021/09/19 12:59:52;;;;;;;3.05;2.05;;;;;;;;;;5036972;28;20026;-73